EGQL/ADX METAR and TAF weather

Enter ICAO airport designator
Station Type Date Time Source
EGQL METAR 2019/02/17 07:50 UTC NOAA

EGQL 170750Z 12009KT 9999 FEW030 BKN140 09/06 Q1005 BLU


Station Type Date Time Source
EGQL Decoded METAR 2019/02/17 07:50 UTC NOAA

Leuchars, United Kingdom (EGQL) 56-23N 002-52W 0M
Feb 17, 2019 - 02:50 AM EST / 2019.02.17 0750 UTC
Wind: from the ESE (120 degrees) at 10 MPH (9 KT):0
Visibility: greater than 7 mile(s):0
Sky conditions: mostly cloudy
Temperature: 48 F (9 C)
Dew Point: 42 F (6 C)
Relative Humidity: 81%
Pressure (altimeter): 29.68 in. Hg (1005 hPa)
ob: EGQL 170750Z 12009KT 9999 FEW030 BKN140 09/06 Q1005 BLU
cycle: 8

Station Type Date Time Source
EGQL TAF 2011/07/27 06:03 UTC NOAA

TAF TAF
AMD EGQL 270424Z 2706/2724 14005KT 9999 BKN020 PROB30
TEMPO 2706/2708 SCT012
BECMG 2708/2710 SCT025


Example: see airport list